sensor_id;sensor_type;location;lat;lon;timestamp;P1;durP1;ratioP1;P2;durP2;ratioP2
40537;SDS011;27925;41.874;12.526;2023-04-15T00:02:25;27.65;;;8.32;;
40537;SDS011;27925;41.874;12.526;2023-04-15T00:04:50;28.60;;;8.77;;
40537;SDS011;27925;41.874;12.526;2023-04-15T00:07:16;26.15;;;9.20;;
40537;SDS011;27925;41.874;12.526;2023-04-15T00:09:42;38.15;;;11.65;;
40537;SDS011;27925;41.874;12.526;2023-04-15T00:12:09;23.45;;;9.07;;
40537;SDS011;27925;41.874;12.526;2023-04-15T00:14:35;29.42;;;9.43;;
40537;SDS011;27925;41.874;12.526;2023-04-15T00:17:01;23.70;;;8.75;;
40537;SDS011;27925;41.874;12.526;2023-04-15T00:19:27;26.98;;;9.18;;
40537;SDS011;27925;41.874;12.526;2023-04-15T00:21:53;31.38;;;8.88;;
40537;SDS011;27925;41.874;12.526;2023-04-15T00:24:19;30.40;;;8.57;;
40537;SDS011;27925;41.874;12.526;2023-04-15T00:26:45;23.80;;;8.63;;
40537;SDS011;27925;41.874;12.526;2023-04-15T00:29:11;26.20;;;8.63;;
40537;SDS011;27925;41.874;12.526;2023-04-15T00:31:37;25.05;;;8.05;;
40537;SDS011;27925;41.874;12.526;2023-04-15T00:34:03;25.25;;;8.40;;
40537;SDS011;27925;41.874;12.526;2023-04-15T00:36:28;29.00;;;8.20;;
40537;SDS011;27925;41.874;12.526;2023-04-15T00:38:55;29.40;;;8.07;;
40537;SDS011;27925;41.874;12.526;2023-04-15T00:41:21;35.35;;;7.65;;
40537;SDS011;27925;41.874;12.526;2023-04-15T00:43:47;29.88;;;7.80;;
40537;SDS011;27925;41.874;12.526;2023-04-15T00:46:13;23.75;;;7.80;;
40537;SDS011;27925;41.874;12.526;2023-04-15T00:48:41;21.55;;;7.72;;
40537;SDS011;27925;41.874;12.526;2023-04-15T00:51:08;28.65;;;7.90;;
40537;SDS011;27925;41.874;12.526;2023-04-15T00:53:33;32.97;;;8.13;;
40537;SDS011;27925;41.874;12.526;2023-04-15T00:55:59;22.27;;;8.30;;
40537;SDS011;27925;41.874;12.526;2023-04-15T00:58:25;22.10;;;7.53;;
40537;SDS011;27925;41.874;12.526;2023-04-15T01:00:52;23.38;;;8.10;;
40537;SDS011;27925;41.874;12.526;2023-04-15T01:03:19;21.90;;;7.03;;
40537;SDS011;27925;41.874;12.526;2023-04-15T01:05:45;24.58;;;7.45;;
40537;SDS011;27925;41.874;12.526;2023-04-15T01:08:11;27.52;;;7.75;;
40537;SDS011;27925;41.874;12.526;2023-04-15T01:10:37;25.92;;;7.53;;
40537;SDS011;27925;41.874;12.526;2023-04-15T01:13:03;24.90;;;5.45;;
40537;SDS011;27925;41.874;12.526;2023-04-15T01:15:29;19.60;;;5.07;;
40537;SDS011;27925;41.874;12.526;2023-04-15T01:17:59;21.67;;;5.15;;
40537;SDS011;27925;41.874;12.526;2023-04-15T01:20:26;20.83;;;5.95;;
40537;SDS011;27925;41.874;12.526;2023-04-15T01:22:53;23.65;;;4.95;;
40537;SDS011;27925;41.874;12.526;2023-04-15T01:25:27;26.77;;;4.32;;
40537;SDS011;27925;41.874;12.526;2023-04-15T01:27:57;22.40;;;3.95;;
40537;SDS011;27925;41.874;12.526;2023-04-15T01:30:23;19.27;;;4.22;;
40537;SDS011;27925;41.874;12.526;2023-04-15T01:32:49;23.60;;;3.30;;
40537;SDS011;27925;41.874;12.526;2023-04-15T01:35:15;19.73;;;3.92;;
40537;SDS011;27925;41.874;12.526;2023-04-15T01:37:42;18.80;;;3.67;;
40537;SDS011;27925;41.874;12.526;2023-04-15T01:40:08;23.05;;;3.67;;
40537;SDS011;27925;41.874;12.526;2023-04-15T01:42:35;11.43;;;2.90;;
40537;SDS011;27925;41.874;12.526;2023-04-15T01:45:00;18.95;;;3.30;;
40537;SDS011;27925;41.874;12.526;2023-04-15T01:47:26;23.92;;;4.03;;
40537;SDS011;27925;41.874;12.526;2023-04-15T01:49:52;17.80;;;2.92;;
40537;SDS011;27925;41.874;12.526;2023-04-15T01:52:18;14.70;;;3.22;;
40537;SDS011;27925;41.874;12.526;2023-04-15T01:54:44;15.68;;;3.10;;
40537;SDS011;27925;41.874;12.526;2023-04-15T01:57:10;16.50;;;3.63;;
40537;SDS011;27925;41.874;12.526;2023-04-15T01:59:35;19.73;;;3.53;;
40537;SDS011;27925;41.874;12.526;2023-04-15T02:02:01;14.95;;;3.30;;
40537;SDS011;27925;41.874;12.526;2023-04-15T02:04:27;18.42;;;3.40;;
40537;SDS011;27925;41.874;12.526;2023-04-15T02:06:52;18.25;;;4.22;;
40537;SDS011;27925;41.874;12.526;2023-04-15T02:09:18;13.65;;;3.35;;
40537;SDS011;27925;41.874;12.526;2023-04-15T02:11:44;13.88;;;3.33;;
40537;SDS011;27925;41.874;12.526;2023-04-15T02:14:10;18.05;;;3.50;;
40537;SDS011;27925;41.874;12.526;2023-04-15T02:16:35;9.13;;;2.83;;
40537;SDS011;27925;41.874;12.526;2023-04-15T02:19:01;12.88;;;2.72;;
40537;SDS011;27925;41.874;12.526;2023-04-15T02:21:28;16.20;;;3.00;;
40537;SDS011;27925;41.874;12.526;2023-04-15T02:23:54;14.88;;;3.70;;
40537;SDS011;27925;41.874;12.526;2023-04-15T02:26:20;19.80;;;3.58;;
40537;SDS011;27925;41.874;12.526;2023-04-15T02:28:46;18.05;;;4.20;;
40537;SDS011;27925;41.874;12.526;2023-04-15T02:31:13;13.43;;;3.13;;
40537;SDS011;27925;41.874;12.526;2023-04-15T02:33:38;16.90;;;3.70;;
40537;SDS011;27925;41.874;12.526;2023-04-15T02:36:04;15.48;;;3.22;;
40537;SDS011;27925;41.874;12.526;2023-04-15T02:38:32;20.02;;;3.20;;
40537;SDS011;27925;41.874;12.526;2023-04-15T02:40:58;19.17;;;4.18;;
40537;SDS011;27925;41.874;12.526;2023-04-15T02:43:23;14.82;;;3.00;;
40537;SDS011;27925;41.874;12.526;2023-04-15T02:45:49;15.70;;;3.25;;
40537;SDS011;27925;41.874;12.526;2023-04-15T02:48:15;22.75;;;3.90;;
40537;SDS011;27925;41.874;12.526;2023-04-15T02:50:43;12.82;;;3.30;;
40537;SDS011;27925;41.874;12.526;2023-04-15T02:53:09;17.02;;;3.53;;
40537;SDS011;27925;41.874;12.526;2023-04-15T02:55:35;15.23;;;3.20;;
40537;SDS011;27925;41.874;12.526;2023-04-15T02:58:01;21.13;;;3.60;;
40537;SDS011;27925;41.874;12.526;2023-04-15T03:00:27;17.20;;;3.08;;
40537;SDS011;27925;41.874;12.526;2023-04-15T03:02:56;18.20;;;3.97;;
40537;SDS011;27925;41.874;12.526;2023-04-15T03:05:29;17.13;;;3.58;;
40537;SDS011;27925;41.874;12.526;2023-04-15T03:07:55;14.90;;;3.88;;
40537;SDS011;27925;41.874;12.526;2023-04-15T03:10:21;16.65;;;3.72;;
40537;SDS011;27925;41.874;12.526;2023-04-15T03:12:47;16.10;;;4.10;;
40537;SDS011;27925;41.874;12.526;2023-04-15T03:15:13;23.98;;;4.22;;
40537;SDS011;27925;41.874;12.526;2023-04-15T03:17:39;21.85;;;3.80;;
40537;SDS011;27925;41.874;12.526;2023-04-15T03:20:05;21.95;;;3.90;;
40537;SDS011;27925;41.874;12.526;2023-04-15T03:22:31;19.65;;;3.50;;
40537;SDS011;27925;41.874;12.526;2023-04-15T03:24:57;15.40;;;3.35;;
40537;SDS011;27925;41.874;12.526;2023-04-15T03:27:23;16.92;;;3.47;;
40537;SDS011;27925;41.874;12.526;2023-04-15T03:29:49;16.30;;;3.40;;
40537;SDS011;27925;41.874;12.526;2023-04-15T03:32:15;22.45;;;4.18;;
40537;SDS011;27925;41.874;12.526;2023-04-15T03:34:42;19.15;;;4.72;;
40537;SDS011;27925;41.874;12.526;2023-04-15T03:37:08;14.38;;;3.67;;
40537;SDS011;27925;41.874;12.526;2023-04-15T03:39:33;17.08;;;3.10;;
40537;SDS011;27925;41.874;12.526;2023-04-15T03:41:59;19.40;;;3.53;;
40537;SDS011;27925;41.874;12.526;2023-04-15T03:44:26;14.98;;;2.95;;
40537;SDS011;27925;41.874;12.526;2023-04-15T03:46:52;19.08;;;3.60;;
40537;SDS011;27925;41.874;12.526;2023-04-15T03:49:18;13.35;;;2.92;;
40537;SDS011;27925;41.874;12.526;2023-04-15T03:51:44;11.57;;;2.90;;
40537;SDS011;27925;41.874;12.526;2023-04-15T03:54:10;15.10;;;3.20;;
40537;SDS011;27925;41.874;12.526;2023-04-15T03:56:39;14.32;;;3.17;;
40537;SDS011;27925;41.874;12.526;2023-04-15T03:59:05;14.57;;;3.53;;
40537;SDS011;27925;41.874;12.526;2023-04-15T04:01:31;14.70;;;3.38;;
40537;SDS011;27925;41.874;12.526;2023-04-15T04:03:56;10.60;;;2.47;;
40537;SDS011;27925;41.874;12.526;2023-04-15T04:06:22;14.35;;;3.55;;
40537;SDS011;27925;41.874;12.526;2023-04-15T04:08:48;17.30;;;3.33;;
40537;SDS011;27925;41.874;12.526;2023-04-15T04:11:13;13.82;;;3.20;;
40537;SDS011;27925;41.874;12.526;2023-04-15T04:13:39;9.88;;;2.60;;
40537;SDS011;27925;41.874;12.526;2023-04-15T04:16:05;12.60;;;2.70;;
40537;SDS011;27925;41.874;12.526;2023-04-15T04:18:31;10.68;;;3.13;;
40537;SDS011;27925;41.874;12.526;2023-04-15T04:20:57;13.90;;;3.25;;
40537;SDS011;27925;41.874;12.526;2023-04-15T04:23:22;14.80;;;2.90;;
40537;SDS011;27925;41.874;12.526;2023-04-15T04:25:48;9.98;;;2.28;;
40537;SDS011;27925;41.874;12.526;2023-04-15T04:28:14;14.75;;;2.63;;
40537;SDS011;27925;41.874;12.526;2023-04-15T04:30:39;13.48;;;2.80;;
40537;SDS011;27925;41.874;12.526;2023-04-15T04:33:05;13.20;;;2.90;;
40537;SDS011;27925;41.874;12.526;2023-04-15T04:35:31;16.15;;;3.08;;
40537;SDS011;27925;41.874;12.526;2023-04-15T04:37:59;15.77;;;2.63;;
40537;SDS011;27925;41.874;12.526;2023-04-15T04:40:25;14.23;;;2.90;;
40537;SDS011;27925;41.874;12.526;2023-04-15T04:42:51;14.30;;;3.03;;
40537;SDS011;27925;41.874;12.526;2023-04-15T04:45:18;10.02;;;2.90;;
40537;SDS011;27925;41.874;12.526;2023-04-15T04:47:44;13.85;;;3.05;;
40537;SDS011;27925;41.874;12.526;2023-04-15T04:50:11;13.82;;;3.13;;
40537;SDS011;27925;41.874;12.526;2023-04-15T04:52:37;10.95;;;2.72;;
40537;SDS011;27925;41.874;12.526;2023-04-15T04:55:03;9.45;;;2.63;;
40537;SDS011;27925;41.874;12.526;2023-04-15T04:57:29;10.52;;;2.95;;
40537;SDS011;27925;41.874;12.526;2023-04-15T04:59:54;11.10;;;2.70;;
40537;SDS011;27925;41.874;12.526;2023-04-15T05:02:20;9.70;;;3.10;;
40537;SDS011;27925;41.874;12.526;2023-04-15T05:04:46;10.90;;;2.80;;
40537;SDS011;27925;41.874;12.526;2023-04-15T05:07:12;11.65;;;2.97;;
40537;SDS011;27925;41.874;12.526;2023-04-15T05:09:38;10.25;;;3.08;;
40537;SDS011;27925;41.874;12.526;2023-04-15T05:12:04;10.80;;;2.90;;
40537;SDS011;27925;41.874;12.526;2023-04-15T05:14:30;15.50;;;3.03;;
40537;SDS011;27925;41.874;12.526;2023-04-15T05:16:56;10.90;;;2.72;;
40537;SDS011;27925;41.874;12.526;2023-04-15T05:19:22;13.77;;;3.42;;
40537;SDS011;27925;41.874;12.526;2023-04-15T05:21:47;9.02;;;2.50;;
40537;SDS011;27925;41.874;12.526;2023-04-15T05:24:13;13.25;;;3.08;;
40537;SDS011;27925;41.874;12.526;2023-04-15T05:26:39;13.98;;;3.13;;
40537;SDS011;27925;41.874;12.526;2023-04-15T05:29:05;11.68;;;3.38;;
40537;SDS011;27925;41.874;12.526;2023-04-15T05:31:31;12.20;;;3.53;;
40537;SDS011;27925;41.874;12.526;2023-04-15T05:33:56;15.15;;;3.40;;
40537;SDS011;27925;41.874;12.526;2023-04-15T05:36:22;14.88;;;3.65;;
40537;SDS011;27925;41.874;12.526;2023-04-15T05:38:48;12.10;;;3.10;;
40537;SDS011;27925;41.874;12.526;2023-04-15T05:41:13;15.50;;;3.30;;
40537;SDS011;27925;41.874;12.526;2023-04-15T05:43:40;11.43;;;3.22;;
40537;SDS011;27925;41.874;12.526;2023-04-15T05:46:05;15.90;;;4.07;;
40537;SDS011;27925;41.874;12.526;2023-04-15T05:48:32;10.63;;;3.10;;
40537;SDS011;27925;41.874;12.526;2023-04-15T05:50:58;9.80;;;2.90;;
40537;SDS011;27925;41.874;12.526;2023-04-15T05:53:24;9.48;;;3.17;;
40537;SDS011;27925;41.874;12.526;2023-04-15T05:55:50;8.75;;;2.65;;
40537;SDS011;27925;41.874;12.526;2023-04-15T05:58:16;12.40;;;2.85;;
40537;SDS011;27925;41.874;12.526;2023-04-15T06:00:42;8.27;;;2.75;;
40537;SDS011;27925;41.874;12.526;2023-04-15T06:03:08;12.02;;;2.90;;
40537;SDS011;27925;41.874;12.526;2023-04-15T06:05:35;8.48;;;2.47;;
40537;SDS011;27925;41.874;12.526;2023-04-15T06:08:01;7.38;;;2.50;;
40537;SDS011;27925;41.874;12.526;2023-04-15T06:10:27;9.15;;;2.60;;
40537;SDS011;27925;41.874;12.526;2023-04-15T06:12:52;9.20;;;2.35;;
40537;SDS011;27925;41.874;12.526;2023-04-15T06:15:18;6.40;;;2.15;;
40537;SDS011;27925;41.874;12.526;2023-04-15T06:17:44;8.95;;;2.40;;
40537;SDS011;27925;41.874;12.526;2023-04-15T06:20:10;7.85;;;2.70;;
40537;SDS011;27925;41.874;12.526;2023-04-15T06:22:36;7.13;;;2.95;;
40537;SDS011;27925;41.874;12.526;2023-04-15T06:25:03;9.38;;;2.55;;
40537;SDS011;27925;41.874;12.526;2023-04-15T06:27:29;8.32;;;2.38;;
40537;SDS011;27925;41.874;12.526;2023-04-15T06:29:55;6.65;;;2.25;;
40537;SDS011;27925;41.874;12.526;2023-04-15T06:32:20;8.40;;;2.38;;
40537;SDS011;27925;41.874;12.526;2023-04-15T06:34:46;6.65;;;2.33;;
40537;SDS011;27925;41.874;12.526;2023-04-15T06:37:12;14.90;;;2.90;;
40537;SDS011;27925;41.874;12.526;2023-04-15T06:39:40;9.40;;;3.17;;
40537;SDS011;27925;41.874;12.526;2023-04-15T06:42:07;9.63;;;2.47;;
40537;SDS011;27925;41.874;12.526;2023-04-15T06:44:33;6.82;;;2.35;;
40537;SDS011;27925;41.874;12.526;2023-04-15T06:46:59;8.18;;;2.22;;
40537;SDS011;27925;41.874;12.526;2023-04-15T06:49:25;6.78;;;2.22;;
40537;SDS011;27925;41.874;12.526;2023-04-15T06:51:51;7.78;;;2.40;;
40537;SDS011;27925;41.874;12.526;2023-04-15T06:54:16;5.63;;;2.00;;
40537;SDS011;27925;41.874;12.526;2023-04-15T06:56:42;6.10;;;2.30;;
40537;SDS011;27925;41.874;12.526;2023-04-15T06:59:08;7.70;;;2.42;;
40537;SDS011;27925;41.874;12.526;2023-04-15T07:01:34;10.70;;;3.45;;
40537;SDS011;27925;41.874;12.526;2023-04-15T07:03:59;9.18;;;2.53;;
40537;SDS011;27925;41.874;12.526;2023-04-15T07:06:25;5.63;;;2.17;;
40537;SDS011;27925;41.874;12.526;2023-04-15T07:08:51;5.20;;;1.88;;
40537;SDS011;27925;41.874;12.526;2023-04-15T07:11:18;8.85;;;2.58;;
40537;SDS011;27925;41.874;12.526;2023-04-15T07:13:45;6.22;;;2.38;;
40537;SDS011;27925;41.874;12.526;2023-04-15T07:16:10;8.60;;;2.53;;
40537;SDS011;27925;41.874;12.526;2023-04-15T07:18:36;4.93;;;2.22;;
40537;SDS011;27925;41.874;12.526;2023-04-15T07:21:02;9.68;;;2.35;;
40537;SDS011;27925;41.874;12.526;2023-04-15T07:23:28;8.85;;;2.45;;
40537;SDS011;27925;41.874;12.526;2023-04-15T07:25:54;9.35;;;2.53;;
40537;SDS011;27925;41.874;12.526;2023-04-15T07:28:20;7.40;;;2.25;;
40537;SDS011;27925;41.874;12.526;2023-04-15T07:30:46;9.18;;;2.40;;
40537;SDS011;27925;41.874;12.526;2023-04-15T07:33:13;10.10;;;2.75;;
40537;SDS011;27925;41.874;12.526;2023-04-15T07:35:38;10.13;;;2.60;;
40537;SDS011;27925;41.874;12.526;2023-04-15T07:38:04;8.60;;;2.70;;
40537;SDS011;27925;41.874;12.526;2023-04-15T07:40:29;8.52;;;2.67;;
40537;SDS011;27925;41.874;12.526;2023-04-15T07:42:55;8.07;;;2.55;;
40537;SDS011;27925;41.874;12.526;2023-04-15T07:45:22;5.60;;;2.40;;
40537;SDS011;27925;41.874;12.526;2023-04-15T07:47:48;8.63;;;2.92;;
40537;SDS011;27925;41.874;12.526;2023-04-15T07:50:15;8.75;;;3.13;;
40537;SDS011;27925;41.874;12.526;2023-04-15T07:52:41;10.52;;;3.55;;
40537;SDS011;27925;41.874;12.526;2023-04-15T07:55:08;9.52;;;3.25;;
40537;SDS011;27925;41.874;12.526;2023-04-15T07:57:35;6.03;;;2.60;;
40537;SDS011;27925;41.874;12.526;2023-04-15T08:00:01;6.85;;;2.58;;
40537;SDS011;27925;41.874;12.526;2023-04-15T08:02:31;7.32;;;3.10;;
40537;SDS011;27925;41.874;12.526;2023-04-15T08:04:57;8.55;;;3.15;;
40537;SDS011;27925;41.874;12.526;2023-04-15T08:07:23;8.48;;;3.05;;
40537;SDS011;27925;41.874;12.526;2023-04-15T08:09:50;6.40;;;2.40;;
40537;SDS011;27925;41.874;12.526;2023-04-15T08:12:16;7.93;;;2.50;;
40537;SDS011;27925;41.874;12.526;2023-04-15T08:14:42;8.57;;;2.85;;
40537;SDS011;27925;41.874;12.526;2023-04-15T08:17:07;6.90;;;2.17;;
40537;SDS011;27925;41.874;12.526;2023-04-15T08:19:33;7.07;;;2.33;;
40537;SDS011;27925;41.874;12.526;2023-04-15T08:21:59;7.10;;;2.30;;
40537;SDS011;27925;41.874;12.526;2023-04-15T08:24:25;8.30;;;2.50;;
40537;SDS011;27925;41.874;12.526;2023-04-15T08:26:51;10.73;;;3.22;;
40537;SDS011;27925;41.874;12.526;2023-04-15T08:29:17;7.72;;;2.75;;
40537;SDS011;27925;41.874;12.526;2023-04-15T08:31:43;11.00;;;3.40;;
40537;SDS011;27925;41.874;12.526;2023-04-15T08:34:12;8.27;;;3.22;;
40537;SDS011;27925;41.874;12.526;2023-04-15T08:36:39;8.60;;;2.63;;
40537;SDS011;27925;41.874;12.526;2023-04-15T08:39:06;9.00;;;2.60;;
40537;SDS011;27925;41.874;12.526;2023-04-15T08:41:39;6.38;;;2.33;;
40537;SDS011;27925;41.874;12.526;2023-04-15T08:44:10;11.20;;;3.20;;
40537;SDS011;27925;41.874;12.526;2023-04-15T08:46:36;9.40;;;3.15;;
40537;SDS011;27925;41.874;12.526;2023-04-15T08:49:03;7.95;;;2.60;;
40537;SDS011;27925;41.874;12.526;2023-04-15T08:51:30;10.10;;;2.80;;
40537;SDS011;27925;41.874;12.526;2023-04-15T08:53:56;6.97;;;2.83;;
40537;SDS011;27925;41.874;12.526;2023-04-15T08:56:23;7.78;;;2.67;;
40537;SDS011;27925;41.874;12.526;2023-04-15T08:58:51;10.23;;;3.75;;
40537;SDS011;27925;41.874;12.526;2023-04-15T09:01:17;11.20;;;6.40;;
40537;SDS011;27925;41.874;12.526;2023-04-15T09:03:43;13.73;;;9.45;;
40537;SDS011;27925;41.874;12.526;2023-04-15T09:06:10;19.60;;;14.68;;
40537;SDS011;27925;41.874;12.526;2023-04-15T09:08:36;18.95;;;17.15;;
40537;SDS011;27925;41.874;12.526;2023-04-15T09:11:02;28.05;;;22.08;;
40537;SDS011;27925;41.874;12.526;2023-04-15T09:13:28;26.60;;;23.40;;
40537;SDS011;27925;41.874;12.526;2023-04-15T09:15:54;25.80;;;20.05;;
40537;SDS011;27925;41.874;12.526;2023-04-15T09:18:31;20.13;;;15.77;;
40537;SDS011;27925;41.874;12.526;2023-04-15T09:21:09;18.98;;;13.75;;
40537;SDS011;27925;41.874;12.526;2023-04-15T09:23:38;16.05;;;11.95;;
40537;SDS011;27925;41.874;12.526;2023-04-15T09:26:06;13.23;;;9.82;;
40537;SDS011;27925;41.874;12.526;2023-04-15T09:28:32;14.00;;;8.75;;
40537;SDS011;27925;41.874;12.526;2023-04-15T09:31:04;10.93;;;6.90;;
40537;SDS011;27925;41.874;12.526;2023-04-15T09:33:30;13.13;;;6.35;;
40537;SDS011;27925;41.874;12.526;2023-04-15T09:36:00;13.38;;;6.88;;
40537;SDS011;27925;41.874;12.526;2023-04-15T09:38:29;12.13;;;5.40;;
40537;SDS011;27925;41.874;12.526;2023-04-15T09:40:56;12.52;;;5.13;;
40537;SDS011;27925;41.874;12.526;2023-04-15T09:43:25;12.10;;;4.72;;
40537;SDS011;27925;41.874;12.526;2023-04-15T09:46:04;13.13;;;4.75;;
40537;SDS011;27925;41.874;12.526;2023-04-15T09:48:30;10.13;;;4.82;;
40537;SDS011;27925;41.874;12.526;2023-04-15T09:50:57;13.65;;;4.00;;
40537;SDS011;27925;41.874;12.526;2023-04-15T09:53:23;12.77;;;4.60;;
40537;SDS011;27925;41.874;12.526;2023-04-15T09:58:26;21.23;;;9.07;;
40537;SDS011;27925;41.874;12.526;2023-04-15T10:00:52;21.55;;;5.53;;
40537;SDS011;27925;41.874;12.526;2023-04-15T10:03:22;13.50;;;3.03;;
40537;SDS011;27925;41.874;12.526;2023-04-15T10:05:48;16.70;;;2.97;;
40537;SDS011;27925;41.874;12.526;2023-04-15T10:08:16;13.07;;;3.67;;
40537;SDS011;27925;41.874;12.526;2023-04-15T10:10:44;15.10;;;4.00;;
40537;SDS011;27925;41.874;12.526;2023-04-15T10:13:15;15.23;;;4.00;;
40537;SDS011;27925;41.874;12.526;2023-04-15T10:15:43;14.18;;;3.47;;
40537;SDS011;27925;41.874;12.526;2023-04-15T10:18:14;12.82;;;3.60;;
40537;SDS011;27925;41.874;12.526;2023-04-15T10:20:41;11.75;;;3.63;;
40537;SDS011;27925;41.874;12.526;2023-04-15T10:23:08;19.85;;;3.60;;
40537;SDS011;27925;41.874;12.526;2023-04-15T10:25:35;15.32;;;2.95;;
40537;SDS011;27925;41.874;12.526;2023-04-15T10:28:01;14.52;;;3.00;;
40537;SDS011;27925;41.874;12.526;2023-04-15T10:30:27;13.55;;;2.92;;
40537;SDS011;27925;41.874;12.526;2023-04-15T10:32:54;13.35;;;2.72;;
40537;SDS011;27925;41.874;12.526;2023-04-15T10:35:21;13.02;;;2.70;;
40537;SDS011;27925;41.874;12.526;2023-04-15T10:37:47;14.48;;;3.85;;
40537;SDS011;27925;41.874;12.526;2023-04-15T10:40:29;13.32;;;3.95;;
40537;SDS011;27925;41.874;12.526;2023-04-15T10:42:56;10.00;;;3.33;;
40537;SDS011;27925;41.874;12.526;2023-04-15T10:45:27;10.45;;;3.35;;
40537;SDS011;27925;41.874;12.526;2023-04-15T10:47:57;12.50;;;3.63;;
40537;SDS011;27925;41.874;12.526;2023-04-15T10:50:29;13.52;;;3.50;;
40537;SDS011;27925;41.874;12.526;2023-04-15T10:52:56;15.23;;;3.63;;
40537;SDS011;27925;41.874;12.526;2023-04-15T10:55:24;15.25;;;3.30;;
40537;SDS011;27925;41.874;12.526;2023-04-15T10:57:54;33.15;;;18.20;;
40537;SDS011;27925;41.874;12.526;2023-04-15T11:00:25;16.17;;;3.90;;
40537;SDS011;27925;41.874;12.526;2023-04-15T11:03:07;17.98;;;3.78;;
40537;SDS011;27925;41.874;12.526;2023-04-15T20:38:26;20.83;;;5.30;;
40537;SDS011;27925;41.874;12.526;2023-04-15T20:40:51;17.95;;;4.45;;
40537;SDS011;27925;41.874;12.526;2023-04-15T20:43:17;12.35;;;3.75;;
40537;SDS011;27925;41.874;12.526;2023-04-15T20:45:43;11.82;;;3.38;;
40537;SDS011;27925;41.874;12.526;2023-04-15T20:48:08;10.43;;;3.70;;
40537;SDS011;27925;41.874;12.526;2023-04-15T20:50:34;17.23;;;3.28;;
40537;SDS011;27925;41.874;12.526;2023-04-15T20:53:00;10.98;;;3.10;;
40537;SDS011;27925;41.874;12.526;2023-04-15T20:55:26;10.23;;;2.83;;
40537;SDS011;27925;41.874;12.526;2023-04-15T20:58:11;8.95;;;2.90;;
40537;SDS011;27925;41.874;12.526;2023-04-15T21:00:36;8.68;;;3.10;;
40537;SDS011;27925;41.874;12.526;2023-04-15T21:03:03;6.88;;;2.53;;
40537;SDS011;27925;41.874;12.526;2023-04-15T21:05:29;6.45;;;2.40;;
40537;SDS011;27925;41.874;12.526;2023-04-15T21:07:55;7.05;;;2.55;;
40537;SDS011;27925;41.874;12.526;2023-04-15T21:10:20;9.00;;;2.78;;
40537;SDS011;27925;41.874;12.526;2023-04-15T21:12:46;8.52;;;2.78;;
40537;SDS011;27925;41.874;12.526;2023-04-15T21:15:12;8.32;;;3.00;;
40537;SDS011;27925;41.874;12.526;2023-04-15T21:17:38;11.43;;;2.92;;
40537;SDS011;27925;41.874;12.526;2023-04-15T21:20:04;11.63;;;3.20;;
40537;SDS011;27925;41.874;12.526;2023-04-15T21:22:30;12.23;;;3.40;;
40537;SDS011;27925;41.874;12.526;2023-04-15T21:24:56;12.68;;;3.83;;
40537;SDS011;27925;41.874;12.526;2023-04-15T21:27:21;17.17;;;4.50;;
40537;SDS011;27925;41.874;12.526;2023-04-15T21:29:47;13.95;;;4.35;;
40537;SDS011;27925;41.874;12.526;2023-04-15T21:32:13;16.88;;;5.10;;
40537;SDS011;27925;41.874;12.526;2023-04-15T21:34:38;19.83;;;7.25;;
40537;SDS011;27925;41.874;12.526;2023-04-15T21:37:04;13.60;;;5.20;;
40537;SDS011;27925;41.874;12.526;2023-04-15T21:39:30;19.60;;;4.50;;
40537;SDS011;27925;41.874;12.526;2023-04-15T21:41:56;16.80;;;4.10;;
40537;SDS011;27925;41.874;12.526;2023-04-15T21:44:23;14.07;;;3.65;;
40537;SDS011;27925;41.874;12.526;2023-04-15T21:46:49;18.13;;;4.75;;
40537;SDS011;27925;41.874;12.526;2023-04-15T21:49:15;11.98;;;3.85;;
40537;SDS011;27925;41.874;12.526;2023-04-15T21:51:41;13.90;;;3.58;;
40537;SDS011;27925;41.874;12.526;2023-04-15T21:54:07;12.43;;;2.80;;
40537;SDS011;27925;41.874;12.526;2023-04-15T21:56:32;8.65;;;3.40;;
40537;SDS011;27925;41.874;12.526;2023-04-15T21:58:58;9.25;;;3.22;;
40537;SDS011;27925;41.874;12.526;2023-04-15T22:01:24;7.18;;;2.40;;
40537;SDS011;27925;41.874;12.526;2023-04-15T22:03:50;8.85;;;2.55;;
40537;SDS011;27925;41.874;12.526;2023-04-15T22:06:16;11.65;;;2.67;;
40537;SDS011;27925;41.874;12.526;2023-04-15T22:08:42;8.63;;;2.72;;
40537;SDS011;27925;41.874;12.526;2023-04-15T22:11:08;7.82;;;2.60;;
40537;SDS011;27925;41.874;12.526;2023-04-15T22:13:34;6.90;;;2.50;;
40537;SDS011;27925;41.874;12.526;2023-04-15T22:16:00;8.75;;;3.35;;
40537;SDS011;27925;41.874;12.526;2023-04-15T22:18:26;9.55;;;2.95;;
40537;SDS011;27925;41.874;12.526;2023-04-15T22:20:52;9.90;;;2.50;;
40537;SDS011;27925;41.874;12.526;2023-04-15T22:23:18;8.45;;;2.83;;
40537;SDS011;27925;41.874;12.526;2023-04-15T22:25:46;6.97;;;2.45;;
40537;SDS011;27925;41.874;12.526;2023-04-15T22:28:12;7.53;;;2.35;;
40537;SDS011;27925;41.874;12.526;2023-04-15T22:30:38;7.90;;;2.50;;
40537;SDS011;27925;41.874;12.526;2023-04-15T22:33:05;7.22;;;2.30;;
40537;SDS011;27925;41.874;12.526;2023-04-15T22:35:32;11.20;;;2.50;;
40537;SDS011;27925;41.874;12.526;2023-04-15T22:37:58;8.18;;;2.50;;
40537;SDS011;27925;41.874;12.526;2023-04-15T22:40:24;7.43;;;2.50;;
40537;SDS011;27925;41.874;12.526;2023-04-15T22:42:50;6.57;;;2.30;;
40537;SDS011;27925;41.874;12.526;2023-04-15T22:45:15;8.85;;;2.28;;
40537;SDS011;27925;41.874;12.526;2023-04-15T22:47:41;6.25;;;1.92;;
40537;SDS011;27925;41.874;12.526;2023-04-15T22:50:07;7.05;;;1.85;;
40537;SDS011;27925;41.874;12.526;2023-04-15T22:52:33;6.75;;;2.00;;
40537;SDS011;27925;41.874;12.526;2023-04-15T22:54:59;5.15;;;1.75;;
40537;SDS011;27925;41.874;12.526;2023-04-15T22:57:24;4.72;;;1.40;;
40537;SDS011;27925;41.874;12.526;2023-04-15T22:59:51;5.53;;;1.70;;
40537;SDS011;27925;41.874;12.526;2023-04-15T23:02:17;3.58;;;1.30;;
40537;SDS011;27925;41.874;12.526;2023-04-15T23:04:43;3.30;;;1.30;;
40537;SDS011;27925;41.874;12.526;2023-04-15T23:07:09;2.35;;;1.13;;
40537;SDS011;27925;41.874;12.526;2023-04-15T23:09:35;2.25;;;1.00;;
40537;SDS011;27925;41.874;12.526;2023-04-15T23:12:01;3.17;;;1.10;;
40537;SDS011;27925;41.874;12.526;2023-04-15T23:14:27;5.30;;;1.48;;
40537;SDS011;27925;41.874;12.526;2023-04-15T23:16:54;3.45;;;1.27;;
40537;SDS011;27925;41.874;12.526;2023-04-15T23:19:20;3.90;;;1.13;;
40537;SDS011;27925;41.874;12.526;2023-04-15T23:21:46;4.65;;;1.45;;
40537;SDS011;27925;41.874;12.526;2023-04-15T23:24:11;4.20;;;1.55;;
40537;SDS011;27925;41.874;12.526;2023-04-15T23:26:37;5.03;;;1.65;;
40537;SDS011;27925;41.874;12.526;2023-04-15T23:29:03;4.00;;;1.50;;
40537;SDS011;27925;41.874;12.526;2023-04-15T23:31:28;8.50;;;1.80;;
40537;SDS011;27925;41.874;12.526;2023-04-15T23:33:54;8.80;;;1.80;;
40537;SDS011;27925;41.874;12.526;2023-04-15T23:36:20;8.98;;;2.58;;
40537;SDS011;27925;41.874;12.526;2023-04-15T23:38:45;10.90;;;2.40;;
40537;SDS011;27925;41.874;12.526;2023-04-15T23:41:12;13.15;;;2.72;;
40537;SDS011;27925;41.874;12.526;2023-04-15T23:43:37;13.35;;;2.90;;
40537;SDS011;27925;41.874;12.526;2023-04-15T23:46:03;12.85;;;2.72;;
40537;SDS011;27925;41.874;12.526;2023-04-15T23:48:29;14.75;;;3.03;;
40537;SDS011;27925;41.874;12.526;2023-04-15T23:50:55;12.35;;;3.08;;
40537;SDS011;27925;41.874;12.526;2023-04-15T23:53:21;17.08;;;3.88;;
40537;SDS011;27925;41.874;12.526;2023-04-15T23:55:47;13.70;;;2.65;;
40537;SDS011;27925;41.874;12.526;2023-04-15T23:58:13;15.13;;;2.78;;
